Blisland, United Kingdom
Current Conditions -  °F | °C
As of 8:50 AM on Friday 21 Nov 2014 (Local Time) from EGHQ Reporting Station
Scattered Clouds Scattered Clouds  
Wind Chill: 50°   Ceiling: Unl
Heat Index: 50°   Visibility: 6mi
Dew Point: 48°   Wind: 26mph
Humidity: 94%   Direction: 130°SE
Pressure: 29.91"   Gusts: NA
Location:  50.49°N, 4.76°W
Report Text: EGHQ 210850Z 13023KT 9999 SCT011 SCT045 10/09 Q1013
Loading
Personal Weather Stations






























Interactive Weather Map New forecast layout! Learn more

10-Day Weather Forecast

Advertisements
Track Severe Weather on mobile